Terminal Aerodrome Forecast
Issued by NWS

Home | Current Version | Previous Version | Graphics & Text | Print | Product List | Glossary On
Versions: 1 2 3 4 5 6 7 8 9 10 11 12 13 14 15 16
000
FTUS43 KBIS 240500 RRA
TAFJMS
TAF
KJMS 240559Z 2406/2506 30019KT P6SM SCT020 OVC050
     FM241300 33016KT P6SM OVC050=

USA.gov is the U.S. government's official web portal to all federal, state and local government web resources and services.